createdAt,value
2023-02-14T04:38:04.697Z,-1.80
2023-02-14T04:48:40.358Z,-1.80
2023-02-14T04:59:15.694Z,-1.90
2023-02-14T05:09:51.205Z,-1.50
2023-02-14T05:20:27.145Z,-1.20
2023-02-14T05:31:03.553Z,-0.90
2023-02-14T05:41:39.557Z,-0.60
2023-02-14T05:52:15.156Z,-0.30
2023-02-14T06:02:50.789Z,0.00
2023-02-14T06:13:26.640Z,0.20
2023-02-14T06:24:02.571Z,0.20
2023-02-14T06:34:39.760Z,0.30
2023-02-14T06:45:15.399Z,-0.10
2023-02-14T06:55:51.221Z,-0.20
2023-02-14T07:06:26.903Z,-0.30
2023-02-14T07:17:02.119Z,-0.20
2023-02-14T07:27:38.429Z,-0.20
2023-02-14T07:38:13.856Z,-0.10
2023-02-14T07:48:51.625Z,0.10
2023-02-14T07:59:27.319Z,0.30
2023-02-14T08:10:02.898Z,0.40
2023-02-14T08:20:38.492Z,0.70
2023-02-14T08:31:34.477Z,0.70
2023-02-14T08:42:11.974Z,0.90
2023-02-14T08:52:47.715Z,1.10
2023-02-14T09:03:23.583Z,1.30
2023-02-14T09:13:59.268Z,1.50
2023-02-14T09:24:37.545Z,1.60
2023-02-14T09:35:13.232Z,1.70
2023-02-14T09:45:55.179Z,1.70
2023-02-14T09:56:59.006Z,1.70
2023-02-14T10:07:57.462Z,2.00
2023-02-14T10:18:54.716Z,2.00
2023-02-14T10:29:30.575Z,2.00
2023-02-14T10:40:21.496Z,2.20
2023-02-14T10:51:15.216Z,2.30
2023-02-14T11:01:52.983Z,2.30
2023-02-14T11:12:33.788Z,2.30
2023-02-14T11:23:21.028Z,2.70
2023-02-14T11:33:57.853Z,2.70
2023-02-14T11:44:36.682Z,2.80
2023-02-14T11:55:27.110Z,3.00
2023-02-14T12:06:03.110Z,3.10
2023-02-14T12:16:47.420Z,3.30
2023-02-14T12:27:45.639Z,3.70
2023-02-14T12:38:42.022Z,3.60
2023-02-14T12:50:02.321Z,3.80
2023-02-14T13:00:50.281Z,4.00
2023-02-14T13:11:44.724Z,4.00
2023-02-14T13:22:23.878Z,4.30
2023-02-14T13:33:06.059Z,4.10
2023-02-14T13:44:11.031Z,4.50
2023-02-14T13:54:48.496Z,4.40
2023-02-14T14:05:30.516Z,4.70
2023-02-14T14:16:27.652Z,4.50
2023-02-14T14:27:09.458Z,4.50
2023-02-14T14:37:58.854Z,4.20
2023-02-14T14:48:42.026Z,4.50
2023-02-14T14:59:22.384Z,4.30
2023-02-14T15:09:58.046Z,4.10
2023-02-14T15:20:35.156Z,4.00
2023-02-14T15:31:11.423Z,4.00
2023-02-14T15:41:47.448Z,3.90
2023-02-14T15:52:22.849Z,3.70
2023-02-14T16:03:03.827Z,3.50
2023-02-14T16:13:42.123Z,3.40
2023-02-14T16:24:17.981Z,3.30
2023-02-14T16:34:54.471Z,3.10
2023-02-14T16:45:30.362Z,3.00
2023-02-14T16:56:07.005Z,3.00
2023-02-14T17:06:52.181Z,2.90
2023-02-14T17:17:29.886Z,2.80
2023-02-14T17:28:05.503Z,2.80
2023-02-14T17:38:43.717Z,2.70
2023-02-14T17:49:19.377Z,2.70
2023-02-14T17:59:55.185Z,2.60
2023-02-14T18:10:31.063Z,2.60
2023-02-14T18:21:08.929Z,2.40
2023-02-14T18:31:45.242Z,2.20
2023-02-14T18:42:29.101Z,2.30
2023-02-14T18:53:13.529Z,2.40
2023-02-14T19:03:53.364Z,2.30
2023-02-14T19:14:38.491Z,2.20
2023-02-14T19:25:14.835Z,2.10
2023-02-14T19:36:00.116Z,2.10
2023-02-14T19:46:38.089Z,2.10
2023-02-14T19:57:14.369Z,2.10
2023-02-14T20:07:51.940Z,2.00
2023-02-14T20:18:27.592Z,1.90
2023-02-14T20:29:04.725Z,1.80
2023-02-14T20:39:40.618Z,1.70
2023-02-14T20:50:16.270Z,1.70
2023-02-14T21:00:51.618Z,1.50
2023-02-14T21:11:28.271Z,1.40
2023-02-14T21:22:04.171Z,1.30
2023-02-14T21:32:39.968Z,1.30
2023-02-14T21:43:15.492Z,1.20
2023-02-14T21:53:51.351Z,1.10
2023-02-14T22:04:26.963Z,1.10
2023-02-14T22:15:02.861Z,0.90
2023-02-14T22:25:38.505Z,0.90
